Terminal Aerodrome Forecast
Issued by NWS

Home | Current Version | Previous Version | Graphics & Text | Print | Product List | Glossary On
Versions: 1 2 3 4 5 6 7 8 9 10 11 12 13 14 15 16 17 18 19 20
000
FTUS43 KICT 290500
TAFRSL
TAF
KRSL 290520Z 2906/3006 15010KT P6SM FEW080
     FM291000 17012KT P6SM FEW060
     FM291700 17012G18KT P6SM FEW070
     FM300100 13010KT P6SM FEW070=

USA.gov is the U.S. government's official web portal to all federal, state and local government web resources and services.